createdAt,value
2023-01-06T00:00:20.236Z,1.00
2023-01-06T00:01:20.252Z,1.10
2023-01-06T00:02:20.217Z,1.00
2023-01-06T00:03:20.136Z,0.90
2023-01-06T00:04:20.161Z,1.20
2023-01-06T00:05:20.091Z,1.20
2023-01-06T00:06:20.176Z,0.90
2023-01-06T00:07:20.071Z,1.00
2023-01-06T00:08:20.128Z,1.20
2023-01-06T00:09:20.076Z,1.10
2023-01-06T00:10:20.032Z,1.00
2023-01-06T00:11:20.038Z,1.20
2023-01-06T00:12:20.041Z,0.90
2023-01-06T00:13:20.004Z,0.90
2023-01-06T00:14:20.039Z,1.10
2023-01-06T00:15:19.981Z,1.10
2023-01-06T00:16:20.007Z,1.10
2023-01-06T00:17:19.978Z,0.90
2023-01-06T00:18:21.267Z,1.00
2023-01-06T00:19:20.055Z,1.00
2023-01-06T00:20:19.966Z,1.00
2023-01-06T00:21:19.966Z,0.90
2023-01-06T00:22:20.127Z,1.10
2023-01-06T00:23:19.916Z,0.90
2023-01-06T00:24:19.893Z,0.90
2023-01-06T00:25:19.879Z,1.00
2023-01-06T00:26:19.873Z,1.10
2023-01-06T00:27:19.943Z,1.10
2023-01-06T00:28:19.851Z,0.90
2023-01-06T00:29:19.893Z,0.90
2023-01-06T00:30:19.821Z,0.90
2023-01-06T00:31:19.869Z,0.90
2023-01-06T00:32:19.788Z,1.10
2023-01-06T00:33:19.795Z,0.90
2023-01-06T00:34:19.782Z,0.90
2023-01-06T00:35:19.782Z,0.90
2023-01-06T00:36:19.742Z,0.70
2023-01-06T00:37:19.777Z,0.80
2023-01-06T00:38:19.771Z,1.10
2023-01-06T00:39:19.750Z,1.00
2023-01-06T00:40:19.699Z,1.10
2023-01-06T00:41:19.690Z,0.90
2023-01-06T00:42:19.679Z,1.10
2023-01-06T00:43:19.729Z,1.10
2023-01-06T00:44:19.682Z,0.90
2023-01-06T00:45:19.730Z,0.90
2023-01-06T00:46:19.696Z,1.10
2023-01-06T00:47:19.645Z,1.00
2023-01-06T00:48:19.621Z,0.80
2023-01-06T00:49:19.630Z,0.90
2023-01-06T00:50:19.587Z,0.80
2023-01-06T00:51:19.613Z,1.10
2023-01-06T00:52:19.662Z,1.20
2023-01-06T00:53:19.571Z,0.90
2023-01-06T00:54:19.581Z,1.30
2023-01-06T00:55:19.547Z,1.00
2023-01-06T00:56:19.536Z,1.10
2023-01-06T00:57:19.544Z,0.90
2023-01-06T00:58:19.523Z,1.10
2023-01-06T00:59:19.522Z,1.10
2023-01-06T01:00:19.497Z,1.00
2023-01-06T01:01:19.610Z,1.00
2023-01-06T01:02:19.677Z,1.30
2023-01-06T01:03:19.564Z,1.20
2023-01-06T01:04:19.483Z,1.40
2023-01-06T01:05:19.470Z,1.70
2023-01-06T01:06:19.426Z,1.50
2023-01-06T01:07:19.431Z,1.40
2023-01-06T01:08:19.404Z,1.40
2023-01-06T01:09:19.418Z,1.40
2023-01-06T01:10:19.386Z,1.40
2023-01-06T01:11:19.372Z,1.40
2023-01-06T01:12:19.605Z,1.70
2023-01-06T01:13:19.342Z,1.50
2023-01-06T01:14:19.347Z,1.40
2023-01-06T01:15:19.332Z,1.40
2023-01-06T01:16:19.302Z,1.80
2023-01-06T01:17:19.395Z,1.60
2023-01-06T01:18:19.282Z,1.60
2023-01-06T01:19:19.415Z,1.40
2023-01-06T01:20:19.269Z,1.40
2023-01-06T01:21:19.258Z,1.30
2023-01-06T01:22:19.367Z,1.50
2023-01-06T01:23:19.282Z,1.40
2023-01-06T01:24:19.230Z,1.80
2023-01-06T01:25:19.248Z,1.90
2023-01-06T01:26:19.220Z,1.60
2023-01-06T01:27:19.202Z,1.90
2023-01-06T01:28:19.223Z,1.70
2023-01-06T01:29:19.213Z,1.50
2023-01-06T01:30:19.145Z,1.90
2023-01-06T01:31:19.175Z,1.70
2023-01-06T01:32:19.130Z,1.50
2023-01-06T01:33:19.142Z,1.70
2023-01-06T01:34:19.132Z,1.90
2023-01-06T01:35:19.138Z,1.80
2023-01-06T01:36:19.097Z,1.20
2023-01-06T01:37:19.095Z,1.50
2023-01-06T01:38:19.082Z,1.30
2023-01-06T01:39:19.075Z,1.60
2023-01-06T01:40:19.062Z,1.60
2023-01-06T01:41:19.049Z,1.80
2023-01-06T01:42:19.027Z,1.80
2023-01-06T01:43:19.020Z,1.30
2023-01-06T01:44:19.013Z,1.50
2023-01-06T01:45:19.005Z,1.30
2023-01-06T01:46:19.042Z,1.40
2023-01-06T01:47:18.975Z,1.50
2023-01-06T01:48:18.994Z,1.30
2023-01-06T01:49:18.960Z,1.40
2023-01-06T01:50:18.942Z,1.30
2023-01-06T01:51:18.956Z,1.30
2023-01-06T01:52:18.908Z,1.10
2023-01-06T01:53:18.929Z,1.40
2023-01-06T01:54:18.905Z,1.60
2023-01-06T01:55:18.892Z,1.50
2023-01-06T01:56:18.878Z,1.60
2023-01-06T01:57:18.858Z,1.20
2023-01-06T01:58:18.912Z,1.10
2023-01-06T01:59:18.856Z,1.20
2023-01-06T02:00:18.830Z,1.30
2023-01-06T02:01:18.920Z,1.60
2023-01-06T02:02:18.932Z,1.40
2023-01-06T02:03:18.843Z,1.20
2023-01-06T02:04:18.814Z,1.60
2023-01-06T02:05:18.802Z,1.20
2023-01-06T02:06:18.753Z,1.20
2023-01-06T02:07:18.765Z,1.10
2023-01-06T02:08:18.727Z,1.50
2023-01-06T02:09:18.733Z,1.30
2023-01-06T02:10:18.755Z,1.20
2023-01-06T02:11:18.714Z,1.20
2023-01-06T02:12:18.685Z,1.10
2023-01-06T02:13:18.685Z,1.60
2023-01-06T02:14:18.673Z,1.00
2023-01-06T02:15:18.684Z,1.30
2023-01-06T02:16:18.740Z,1.50
2023-01-06T02:17:18.625Z,1.30
2023-01-06T02:18:18.624Z,1.30
2023-01-06T02:19:18.619Z,1.40
2023-01-06T02:20:18.610Z,1.30
2023-01-06T02:21:18.599Z,1.20
2023-01-06T02:22:18.575Z,1.20
2023-01-06T02:23:18.588Z,1.10
2023-01-06T02:24:18.556Z,1.30
2023-01-06T02:25:18.549Z,1.20
2023-01-06T02:26:18.532Z,1.10
2023-01-06T02:27:18.545Z,0.90
2023-01-06T02:28:18.524Z,1.10
2023-01-06T02:29:18.532Z,1.20
2023-01-06T02:30:18.503Z,0.90
2023-01-06T02:31:18.522Z,1.50
2023-01-06T02:32:18.491Z,1.40
2023-01-06T02:33:18.491Z,1.20
2023-01-06T02:34:18.470Z,1.00
2023-01-06T02:35:18.436Z,0.90
2023-01-06T02:36:18.417Z,1.00
2023-01-06T02:37:18.415Z,0.90
2023-01-06T02:38:18.425Z,1.00
2023-01-06T02:39:18.437Z,1.00
2023-01-06T02:40:18.388Z,0.80
2023-01-06T02:41:18.361Z,1.00
2023-01-06T02:42:18.358Z,1.10
2023-01-06T02:43:18.358Z,0.90
2023-01-06T02:44:18.382Z,1.00
2023-01-06T02:45:18.376Z,1.00
2023-01-06T02:46:18.443Z,1.10
2023-01-06T02:47:18.303Z,0.90
2023-01-06T02:48:18.311Z,0.90
2023-01-06T02:49:18.864Z,1.00
2023-01-06T02:50:18.281Z,1.00
2023-01-06T02:51:18.251Z,0.90
2023-01-06T02:52:18.323Z,0.90
2023-01-06T02:53:18.236Z,0.80
2023-01-06T02:54:18.228Z,0.90
2023-01-06T02:55:18.397Z,1.00
2023-01-06T02:56:18.240Z,0.90
2023-01-06T02:57:18.192Z,1.50
2023-01-06T02:58:18.182Z,0.90
2023-01-06T02:59:18.176Z,0.70
2023-01-06T03:00:18.169Z,1.00
2023-01-06T03:01:18.319Z,1.10
2023-01-06T03:02:18.203Z,1.00
2023-01-06T03:03:18.117Z,1.10
2023-01-06T03:04:18.221Z,0.80
2023-01-06T03:05:18.097Z,1.20
2023-01-06T03:06:18.127Z,1.10
2023-01-06T03:07:18.074Z,1.00
2023-01-06T03:08:18.076Z,0.80
2023-01-06T03:09:18.150Z,1.10
2023-01-06T03:10:18.040Z,1.00
2023-01-06T03:11:18.115Z,0.90
2023-01-06T03:12:18.027Z,1.30
2023-01-06T03:13:18.031Z,1.00
2023-01-06T03:14:18.883Z,0.90
2023-01-06T03:15:17.999Z,1.00
2023-01-06T03:16:18.067Z,0.90
2023-01-06T03:17:18.880Z,1.10
2023-01-06T03:18:17.966Z,1.10
2023-01-06T03:19:17.991Z,1.00
2023-01-06T03:20:17.948Z,1.00
2023-01-06T03:21:17.931Z,0.90
2023-01-06T03:22:17.971Z,1.00
2023-01-06T03:23:17.918Z,1.00
2023-01-06T03:24:17.908Z,0.90
2023-01-06T03:25:17.873Z,1.00
2023-01-06T03:26:17.881Z,0.90
2023-01-06T03:27:17.855Z,1.00
2023-01-06T03:28:17.850Z,0.90
2023-01-06T03:29:17.837Z,1.30
2023-01-06T03:30:17.824Z,1.10
2023-01-06T03:31:17.915Z,1.00
2023-01-06T03:32:17.844Z,1.00
2023-01-06T03:33:17.785Z,1.00
2023-01-06T03:34:17.815Z,1.20
2023-01-06T03:35:17.778Z,1.10
2023-01-06T03:36:17.791Z,1.10
2023-01-06T03:37:17.788Z,1.10
2023-01-06T03:38:17.740Z,1.10
2023-01-06T03:39:17.730Z,1.10
2023-01-06T03:40:17.722Z,1.00
2023-01-06T03:41:17.720Z,1.20
2023-01-06T03:42:34.868Z,1.10
2023-01-06T03:43:17.711Z,1.00
2023-01-06T03:44:17.680Z,0.80
2023-01-06T03:45:17.662Z,0.90
2023-01-06T03:46:17.737Z,0.80
2023-01-06T03:47:17.658Z,0.90
2023-01-06T03:48:17.650Z,1.10
2023-01-06T03:49:17.615Z,0.90
2023-01-06T03:50:17.680Z,0.90
2023-01-06T03:51:17.598Z,1.00
2023-01-06T03:52:17.591Z,1.10
2023-01-06T03:53:17.577Z,1.00
2023-01-06T03:54:17.565Z,0.90
2023-01-06T03:55:17.559Z,1.00
2023-01-06T03:56:17.573Z,1.00
2023-01-06T03:57:17.589Z,1.00
2023-01-06T03:58:17.513Z,0.90
2023-01-06T03:59:17.543Z,1.20
2023-01-06T04:00:17.547Z,1.00
2023-01-06T04:01:17.721Z,0.90
2023-01-06T04:02:17.519Z,0.90
2023-01-06T04:03:17.459Z,1.00
2023-01-06T04:04:17.547Z,1.00
2023-01-06T04:05:17.478Z,0.90
2023-01-06T04:06:17.448Z,0.90
2023-01-06T04:07:17.412Z,0.80
2023-01-06T04:08:17.417Z,0.80
2023-01-06T04:09:17.409Z,0.90
2023-01-06T04:10:17.373Z,1.00
2023-01-06T04:11:17.493Z,0.90
2023-01-06T04:12:17.396Z,1.00
2023-01-06T04:13:17.353Z,0.90
2023-01-06T04:14:17.337Z,0.90
2023-01-06T04:15:17.316Z,0.90
2023-01-06T04:16:17.458Z,0.80
2023-01-06T04:17:17.303Z,1.00
2023-01-06T04:18:17.385Z,1.00
2023-01-06T04:19:17.347Z,0.80
2023-01-06T04:20:17.325Z,0.80
2023-01-06T04:21:17.943Z,0.80
2023-01-06T04:22:17.261Z,1.00
2023-01-06T04:23:17.236Z,0.80
2023-01-06T04:24:17.232Z,0.80
2023-01-06T04:25:17.226Z,0.90
2023-01-06T04:26:17.233Z,1.00
2023-01-06T04:27:17.182Z,0.80
2023-01-06T04:28:17.217Z,0.70
2023-01-06T04:29:17.174Z,1.00
2023-01-06T04:30:17.167Z,1.10
2023-01-06T04:31:17.192Z,1.00
2023-01-06T04:32:17.316Z,0.90
2023-01-06T04:33:17.188Z,1.00
2023-01-06T04:34:17.209Z,0.90
2023-01-06T04:35:17.149Z,0.90
2023-01-06T04:36:17.120Z,1.00
2023-01-06T04:37:17.091Z,0.80
2023-01-06T04:38:17.103Z,0.80
2023-01-06T04:39:17.061Z,0.70
2023-01-06T04:40:17.062Z,0.80
2023-01-06T04:41:17.056Z,0.70
2023-01-06T04:42:17.401Z,0.90
2023-01-06T04:43:17.024Z,0.70
2023-01-06T04:44:17.027Z,0.80
2023-01-06T04:45:16.996Z,0.90
2023-01-06T04:46:16.984Z,0.80
2023-01-06T04:47:16.979Z,1.00
2023-01-06T04:48:16.975Z,0.80
2023-01-06T04:49:16.972Z,0.90
2023-01-06T04:50:16.951Z,0.80
2023-01-06T04:51:16.931Z,0.90
2023-01-06T04:52:16.951Z,0.90
2023-01-06T04:53:17.922Z,0.80
2023-01-06T04:54:16.908Z,1.30
2023-01-06T04:55:16.874Z,0.80
2023-01-06T04:56:16.918Z,0.90
2023-01-06T04:57:16.957Z,0.70
2023-01-06T04:58:16.860Z,0.80
2023-01-06T04:59:16.856Z,0.90
2023-01-06T05:00:16.835Z,1.10
2023-01-06T05:01:16.958Z,0.90
2023-01-06T05:02:16.897Z,0.80
2023-01-06T05:03:16.793Z,0.80
2023-01-06T05:04:16.931Z,0.90
2023-01-06T05:05:16.797Z,0.90
2023-01-06T05:06:16.812Z,1.00
2023-01-06T05:07:16.762Z,0.70
2023-01-06T05:08:16.789Z,0.60
2023-01-06T05:09:16.730Z,1.00
2023-01-06T05:10:16.724Z,0.80
2023-01-06T05:11:16.713Z,0.80
2023-01-06T05:12:16.729Z,1.00
2023-01-06T05:13:16.702Z,0.90
2023-01-06T05:14:17.222Z,0.80
2023-01-06T05:15:16.694Z,1.10
2023-01-06T05:16:16.721Z,0.90
2023-01-06T05:17:16.668Z,0.90
2023-01-06T05:18:16.696Z,0.70
2023-01-06T05:19:16.713Z,0.80
2023-01-06T05:20:17.055Z,0.90
2023-01-06T05:21:16.609Z,0.90
2023-01-06T05:22:16.666Z,0.80
2023-01-06T05:23:16.569Z,0.80
2023-01-06T05:24:16.595Z,0.80
2023-01-06T05:25:16.575Z,0.70
2023-01-06T05:26:16.627Z,0.80
2023-01-06T05:27:16.570Z,0.90
2023-01-06T05:28:16.584Z,0.70
2023-01-06T05:29:16.549Z,0.70
2023-01-06T05:30:16.540Z,0.90
2023-01-06T05:31:16.537Z,0.70
2023-01-06T05:32:16.517Z,0.70
2023-01-06T05:33:16.468Z,0.90
2023-01-06T05:34:16.489Z,0.80
2023-01-06T05:35:16.443Z,0.80
2023-01-06T05:36:16.592Z,0.80
2023-01-06T05:37:16.496Z,0.60
2023-01-06T05:38:16.432Z,1.00
2023-01-06T05:39:16.415Z,0.80
2023-01-06T05:40:16.412Z,0.70
2023-01-06T05:41:16.422Z,0.80
2023-01-06T05:42:16.411Z,0.80
2023-01-06T05:43:16.376Z,0.90
2023-01-06T05:44:16.398Z,0.80
2023-01-06T05:45:16.346Z,0.80
2023-01-06T05:46:16.338Z,0.70
2023-01-06T05:47:16.343Z,0.90
2023-01-06T05:48:16.338Z,1.00
2023-01-06T05:49:16.325Z,0.80
2023-01-06T05:50:16.311Z,0.90
2023-01-06T05:51:16.280Z,0.90
2023-01-06T05:52:16.257Z,0.90
2023-01-06T05:53:16.284Z,1.10
2023-01-06T05:54:16.335Z,0.90
2023-01-06T05:55:16.237Z,1.00
2023-01-06T05:56:16.247Z,0.70
2023-01-06T05:57:16.218Z,0.70
2023-01-06T05:58:16.216Z,0.80
2023-01-06T05:59:16.199Z,0.70
2023-01-06T06:00:16.295Z,0.90
2023-01-06T06:01:16.722Z,0.60
2023-01-06T06:02:16.275Z,0.70
2023-01-06T06:03:16.178Z,0.80
2023-01-06T06:04:16.187Z,0.80
2023-01-06T06:05:16.125Z,0.90
2023-01-06T06:06:16.197Z,0.70
2023-01-06T06:07:16.152Z,0.70
2023-01-06T06:08:16.119Z,0.70
2023-01-06T06:09:16.144Z,0.90
2023-01-06T06:10:16.128Z,0.70
2023-01-06T06:11:16.276Z,1.00
2023-01-06T06:12:16.043Z,0.60
2023-01-06T06:13:16.124Z,0.70
2023-01-06T06:14:17.289Z,0.60
2023-01-06T06:15:16.016Z,0.70
2023-01-06T06:16:16.068Z,1.00
2023-01-06T06:17:15.990Z,0.80
2023-01-06T06:18:15.996Z,0.80
2023-01-06T06:19:16.036Z,0.60
2023-01-06T06:20:16.005Z,0.60
2023-01-06T06:21:15.945Z,0.80
2023-01-06T06:22:15.955Z,0.80
2023-01-06T06:23:16.119Z,0.80
2023-01-06T06:24:15.942Z,0.80
2023-01-06T06:25:15.938Z,0.90
2023-01-06T06:26:15.977Z,0.70
2023-01-06T06:27:15.875Z,0.70
2023-01-06T06:28:15.880Z,0.80
2023-01-06T06:29:15.871Z,0.90
2023-01-06T06:30:15.862Z,1.00
2023-01-06T06:31:15.923Z,0.80
2023-01-06T06:32:15.872Z,0.70
2023-01-06T06:33:15.830Z,0.80
2023-01-06T06:34:15.820Z,0.70
2023-01-06T06:35:15.793Z,0.70
2023-01-06T06:36:16.064Z,0.80
2023-01-06T06:37:15.820Z,0.80
2023-01-06T06:38:15.792Z,0.80
2023-01-06T06:39:15.765Z,0.70
2023-01-06T06:40:16.052Z,0.80
2023-01-06T06:41:15.879Z,0.60
2023-01-06T06:42:15.781Z,1.20
2023-01-06T06:43:15.745Z,0.70
2023-01-06T06:44:15.726Z,0.70
2023-01-06T06:45:15.696Z,0.70
2023-01-06T06:46:15.662Z,0.80
2023-01-06T06:47:15.673Z,0.90
2023-01-06T06:48:15.661Z,0.80
2023-01-06T06:49:15.643Z,0.80
2023-01-06T06:50:15.637Z,0.90
2023-01-06T06:51:15.671Z,0.60
2023-01-06T06:52:15.626Z,0.80
2023-01-06T06:53:15.626Z,0.70
2023-01-06T06:54:15.593Z,0.80
2023-01-06T06:55:15.587Z,0.60
2023-01-06T06:56:15.572Z,0.70
2023-01-06T06:57:15.553Z,0.70
2023-01-06T06:58:15.549Z,0.80
2023-01-06T06:59:15.546Z,0.70
2023-01-06T07:00:15.532Z,0.60
2023-01-06T07:01:15.672Z,0.50
2023-01-06T07:02:15.671Z,0.60
2023-01-06T07:03:15.527Z,0.70
2023-01-06T07:04:15.524Z,0.70
2023-01-06T07:05:15.474Z,0.70
2023-01-06T07:06:15.487Z,0.70
2023-01-06T07:07:15.455Z,0.60
2023-01-06T07:08:15.438Z,0.70
2023-01-06T07:09:15.527Z,0.70
2023-01-06T07:10:15.442Z,0.50
2023-01-06T07:11:15.419Z,0.70
2023-01-06T07:12:15.446Z,0.90
2023-01-06T07:13:15.459Z,0.80
2023-01-06T07:14:15.376Z,0.60
2023-01-06T07:15:15.372Z,0.50
2023-01-06T07:16:15.391Z,0.70
2023-01-06T07:17:15.375Z,0.70
2023-01-06T07:18:15.472Z,0.70
2023-01-06T07:19:15.322Z,0.70
2023-01-06T07:20:15.286Z,0.70
2023-01-06T07:21:15.301Z,0.60
2023-01-06T07:22:15.273Z,0.80
2023-01-06T07:23:15.277Z,0.70
2023-01-06T07:24:15.336Z,0.90
2023-01-06T07:25:15.331Z,0.60
2023-01-06T07:26:15.237Z,0.50
2023-01-06T07:27:15.293Z,0.60
2023-01-06T07:28:16.074Z,0.70
2023-01-06T07:29:15.216Z,0.60
2023-01-06T07:30:15.220Z,0.60
2023-01-06T07:31:15.248Z,0.70
2023-01-06T07:32:15.157Z,0.70
2023-01-06T07:33:15.166Z,0.60
2023-01-06T07:34:15.243Z,0.70
2023-01-06T07:35:15.139Z,0.60
2023-01-06T07:36:15.145Z,0.70
2023-01-06T07:37:15.130Z,0.70
2023-01-06T07:38:15.095Z,0.60
2023-01-06T07:39:15.412Z,0.60
2023-01-06T07:40:15.108Z,0.80
2023-01-06T07:41:15.107Z,0.70
2023-01-06T07:42:15.061Z,0.70
2023-01-06T07:43:15.155Z,0.80
2023-01-06T07:44:17.188Z,0.70
2023-01-06T07:45:15.023Z,0.60
2023-01-06T07:46:15.830Z,0.60
2023-01-06T07:47:15.039Z,0.80
2023-01-06T07:48:15.822Z,0.60
2023-01-06T07:49:14.990Z,0.60
2023-01-06T07:50:14.966Z,0.80
2023-01-06T07:51:14.957Z,0.60
2023-01-06T07:52:14.941Z,0.60
2023-01-06T07:53:14.935Z,0.50
2023-01-06T07:54:14.930Z,0.70
2023-01-06T07:55:14.944Z,0.80
2023-01-06T07:56:14.897Z,0.70
2023-01-06T07:57:15.988Z,0.60
2023-01-06T07:58:14.863Z,0.70
2023-01-06T07:59:14.886Z,0.70
2023-01-06T08:00:14.915Z,0.80
2023-01-06T08:01:14.969Z,0.70
2023-01-06T08:02:14.894Z,0.60
2023-01-06T08:03:14.869Z,0.90
2023-01-06T08:04:14.867Z,0.70
2023-01-06T08:05:14.797Z,0.60
2023-01-06T08:06:14.835Z,0.60
2023-01-06T08:07:14.773Z,0.60
2023-01-06T08:08:14.852Z,0.80
2023-01-06T08:09:14.771Z,0.90
2023-01-06T08:10:14.761Z,0.60
2023-01-06T08:11:14.754Z,0.60
2023-01-06T08:12:14.724Z,0.80
2023-01-06T08:13:14.756Z,0.80
2023-01-06T08:14:14.788Z,0.70
2023-01-06T08:15:14.702Z,0.60
2023-01-06T08:16:14.719Z,0.80
2023-01-06T08:17:14.756Z,0.70
2023-01-06T08:18:14.645Z,0.60
2023-01-06T08:19:14.704Z,0.70
2023-01-06T08:20:14.715Z,0.60
2023-01-06T08:21:14.615Z,0.90
2023-01-06T08:22:14.603Z,1.00
2023-01-06T08:23:14.610Z,0.90
2023-01-06T08:24:14.589Z,0.80
2023-01-06T08:25:14.616Z,0.60
2023-01-06T08:26:14.575Z,0.60
2023-01-06T08:27:14.573Z,1.00
2023-01-06T08:28:14.546Z,1.00
2023-01-06T08:29:14.672Z,0.70
2023-01-06T08:30:14.598Z,0.70
2023-01-06T08:31:14.573Z,0.70
2023-01-06T08:32:14.503Z,0.80
2023-01-06T08:33:14.496Z,0.60
2023-01-06T08:34:14.505Z,0.90
2023-01-06T08:35:14.509Z,0.70
2023-01-06T08:36:14.669Z,0.70
2023-01-06T08:37:14.462Z,0.60
2023-01-06T08:38:14.425Z,0.90
2023-01-06T08:39:14.426Z,0.70
2023-01-06T08:40:14.433Z,0.80
2023-01-06T08:41:14.498Z,0.60
2023-01-06T08:42:14.381Z,0.90
2023-01-06T08:43:14.417Z,0.70
2023-01-06T08:44:14.377Z,0.70
2023-01-06T08:45:14.381Z,0.70
2023-01-06T08:46:14.382Z,0.90
2023-01-06T08:47:14.335Z,1.00
2023-01-06T08:48:14.354Z,1.00
2023-01-06T08:49:14.316Z,0.70
2023-01-06T08:50:14.388Z,0.90
2023-01-06T08:51:14.375Z,0.50
2023-01-06T08:52:14.291Z,1.00
2023-01-06T08:53:14.297Z,0.70
2023-01-06T08:54:14.251Z,0.80
2023-01-06T08:55:14.295Z,0.60
2023-01-06T08:56:14.252Z,0.70
2023-01-06T08:57:14.318Z,0.70
2023-01-06T08:58:14.275Z,0.70
2023-01-06T08:59:14.275Z,0.70
2023-01-06T09:00:14.307Z,0.60
2023-01-06T09:01:14.259Z,0.70
2023-01-06T09:02:14.321Z,0.80
2023-01-06T09:03:14.160Z,0.80
2023-01-06T09:04:14.161Z,0.80
2023-01-06T09:05:14.300Z,0.90
2023-01-06T09:06:14.155Z,1.00
2023-01-06T09:07:14.133Z,0.80
2023-01-06T09:08:14.122Z,0.70
2023-01-06T09:09:14.297Z,0.80
2023-01-06T09:10:14.110Z,0.80
2023-01-06T09:11:14.075Z,0.70
2023-01-06T09:12:14.186Z,0.70
2023-01-06T09:13:14.056Z,0.80
2023-01-06T09:14:14.147Z,0.80
2023-01-06T09:15:14.035Z,0.70
2023-01-06T09:16:14.138Z,1.00
2023-01-06T09:17:14.030Z,0.90
2023-01-06T09:18:14.003Z,0.90
2023-01-06T09:19:14.037Z,0.80
2023-01-06T09:20:14.005Z,0.70
2023-01-06T09:21:13.972Z,0.80
2023-01-06T09:22:13.960Z,0.40
2023-01-06T09:23:13.937Z,0.80
2023-01-06T09:24:13.950Z,0.70
2023-01-06T09:25:13.946Z,0.70
2023-01-06T09:26:13.921Z,0.60
2023-01-06T09:27:13.895Z,0.60
2023-01-06T09:28:13.920Z,0.70
2023-01-06T09:29:13.935Z,0.60
2023-01-06T09:30:13.893Z,0.70
2023-01-06T09:31:13.950Z,0.50
2023-01-06T09:32:13.878Z,0.60
2023-01-06T09:33:13.854Z,0.80
2023-01-06T09:34:13.815Z,0.60
2023-01-06T09:35:13.820Z,0.50
2023-01-06T09:36:13.842Z,0.70
2023-01-06T09:37:13.809Z,0.50
2023-01-06T09:38:13.788Z,0.60
2023-01-06T09:39:13.787Z,0.60
2023-01-06T09:40:13.749Z,0.80
2023-01-06T09:41:13.746Z,0.60
2023-01-06T09:42:14.505Z,0.60
2023-01-06T09:43:13.802Z,0.60
2023-01-06T09:44:13.735Z,0.40
2023-01-06T09:45:13.718Z,0.70
2023-01-06T09:46:13.751Z,0.60
2023-01-06T09:47:13.690Z,0.60
2023-01-06T09:48:13.665Z,0.50
2023-01-06T09:49:13.645Z,0.50
2023-01-06T09:50:13.648Z,0.60
2023-01-06T09:51:13.655Z,0.50
2023-01-06T09:52:13.624Z,0.60
2023-01-06T09:53:13.644Z,0.50
2023-01-06T09:54:21.930Z,0.60
2023-01-06T09:55:13.593Z,0.60
2023-01-06T09:56:13.586Z,0.60
2023-01-06T09:57:13.555Z,0.60
2023-01-06T09:58:13.573Z,0.60
2023-01-06T09:59:13.562Z,0.80
2023-01-06T10:00:13.534Z,0.60
2023-01-06T10:01:13.595Z,0.60
2023-01-06T10:02:13.518Z,0.70
2023-01-06T10:03:13.564Z,0.60
2023-01-06T10:04:13.604Z,0.50
2023-01-06T10:05:13.540Z,0.70
2023-01-06T10:06:13.667Z,0.60
2023-01-06T10:07:13.551Z,0.60
2023-01-06T10:08:13.535Z,0.70
2023-01-06T10:09:13.430Z,0.60
2023-01-06T10:10:29.000Z,0.60
2023-01-06T10:11:13.446Z,0.50
2023-01-06T10:12:13.394Z,0.50
2023-01-06T10:13:13.416Z,0.50
2023-01-06T10:14:13.447Z,0.60
2023-01-06T10:15:13.372Z,0.60
2023-01-06T10:16:13.404Z,0.70
2023-01-06T10:17:13.383Z,0.60
2023-01-06T10:18:13.430Z,0.70
2023-01-06T10:19:13.320Z,0.60
2023-01-06T10:20:14.332Z,0.80
2023-01-06T10:21:13.324Z,0.60
2023-01-06T10:22:13.295Z,0.50
2023-01-06T10:23:13.265Z,0.60
2023-01-06T10:24:13.305Z,0.70
2023-01-06T10:25:13.255Z,0.70
2023-01-06T10:26:13.921Z,0.70
2023-01-06T10:27:13.271Z,0.60
2023-01-06T10:28:13.271Z,0.40
2023-01-06T10:29:13.897Z,0.60
2023-01-06T10:30:13.246Z,0.80
2023-01-06T10:31:24.670Z,0.70
2023-01-06T10:32:13.186Z,1.00
2023-01-06T10:33:13.365Z,0.90
2023-01-06T10:34:13.172Z,0.80
2023-01-06T10:35:13.567Z,0.80
2023-01-06T10:36:13.148Z,0.60
2023-01-06T10:37:13.144Z,0.60
2023-01-06T10:38:13.166Z,0.70
2023-01-06T10:39:13.103Z,0.80
2023-01-06T10:40:13.149Z,0.70
2023-01-06T10:41:13.133Z,0.80
2023-01-06T10:42:13.081Z,0.90
2023-01-06T10:43:13.058Z,0.80
2023-01-06T10:44:13.235Z,0.70
2023-01-06T10:45:13.041Z,0.80
2023-01-06T10:46:13.072Z,0.80
2023-01-06T10:47:13.075Z,0.90
2023-01-06T10:48:13.092Z,0.80
2023-01-06T10:49:12.994Z,0.70
2023-01-06T10:50:13.016Z,1.00
2023-01-06T10:51:12.977Z,0.90
2023-01-06T10:52:12.971Z,0.90
2023-01-06T10:53:12.961Z,0.90
2023-01-06T10:54:12.938Z,1.20
2023-01-06T10:55:12.942Z,1.10
2023-01-06T10:56:12.933Z,0.90
2023-01-06T10:57:12.911Z,0.80
2023-01-06T10:58:19.335Z,0.90
2023-01-06T11:01:10.568Z,1.30
2023-01-06T11:02:31.173Z,1.30
2023-01-06T11:03:31.328Z,1.30
2023-01-06T11:04:09.087Z,0.90
2023-01-06T11:05:08.973Z,1.00
2023-01-06T11:06:09.273Z,1.00
2023-01-06T11:07:09.674Z,1.00
2023-01-06T11:08:08.935Z,0.90
2023-01-06T11:09:25.587Z,1.20
2023-01-06T11:11:27.318Z,1.00
2023-01-06T11:13:36.784Z,1.10
2023-01-06T11:16:01.888Z,1.00
2023-01-06T11:17:33.112Z,1.00
2023-01-06T11:20:12.983Z,0.90
2023-01-06T11:21:14.529Z,1.10
2023-01-06T11:22:18.780Z,1.10
2023-01-06T11:24:05.499Z,1.00
2023-01-06T11:25:11.132Z,0.90
2023-01-06T11:26:07.938Z,1.10
2023-01-06T11:27:07.396Z,0.90
2023-01-06T11:28:07.375Z,0.90
2023-01-06T11:31:14.913Z,1.00
2023-01-06T11:34:42.498Z,1.10
2023-01-06T11:35:42.617Z,1.20
2023-01-06T11:36:42.633Z,1.00
2023-01-06T11:37:43.479Z,1.10
2023-01-06T11:38:42.564Z,1.40
2023-01-06T11:39:46.857Z,1.20
2023-01-06T11:40:44.017Z,1.40
2023-01-06T11:41:42.530Z,1.40
2023-01-06T11:42:42.629Z,1.30
2023-01-06T11:43:42.664Z,1.30
2023-01-06T11:44:42.505Z,1.30
2023-01-06T11:45:42.565Z,1.40
2023-01-06T11:46:42.479Z,1.40
2023-01-06T11:47:42.514Z,1.60
2023-01-06T11:48:42.460Z,1.40
2023-01-06T11:49:43.250Z,1.80
2023-01-06T11:50:42.456Z,1.40
2023-01-06T11:51:42.541Z,1.70
2023-01-06T11:52:43.451Z,1.50
2023-01-06T11:53:42.452Z,2.10
2023-01-06T11:54:52.392Z,2.00
2023-01-06T11:55:42.446Z,1.90
2023-01-06T11:58:00.475Z,1.70
2023-01-06T11:59:00.948Z,2.00
2023-01-06T12:00:00.869Z,2.20
2023-01-06T12:01:01.489Z,2.20
2023-01-06T12:02:00.945Z,2.50
2023-01-06T12:03:01.013Z,2.20
2023-01-06T12:04:00.829Z,2.40
2023-01-06T12:05:02.002Z,2.20
2023-01-06T12:06:00.843Z,2.00
2023-01-06T12:07:02.022Z,2.10
2023-01-06T12:08:05.502Z,1.90
2023-01-06T12:09:00.808Z,2.20
2023-01-06T12:10:00.788Z,2.00
2023-01-06T12:11:01.659Z,2.20
2023-01-06T12:12:00.822Z,2.00
2023-01-06T12:13:01.019Z,2.30
2023-01-06T12:14:13.343Z,2.30
2023-01-06T12:15:02.784Z,2.10
2023-01-06T12:16:03.646Z,2.20
2023-01-06T12:17:00.946Z,2.00
2023-01-06T12:18:00.782Z,2.00
2023-01-06T12:19:01.144Z,2.10
2023-01-06T12:20:00.973Z,1.70
2023-01-06T12:21:01.741Z,1.50
2023-01-06T12:22:03.155Z,1.60
2023-01-06T12:23:01.692Z,1.50
2023-01-06T12:24:03.063Z,1.60
2023-01-06T12:25:01.544Z,1.40
2023-01-06T12:26:02.480Z,1.70
2023-01-06T12:27:02.819Z,1.40
2023-01-06T12:28:17.427Z,1.50
2023-01-06T12:29:02.601Z,1.70
2023-01-06T12:30:02.918Z,1.80
2023-01-06T12:31:01.009Z,1.40
2023-01-06T12:32:08.457Z,1.70
2023-01-06T12:33:03.443Z,1.60
2023-01-06T12:34:02.592Z,1.60
2023-01-06T12:35:07.094Z,1.70
2023-01-06T12:36:04.511Z,1.20
2023-01-06T12:37:02.961Z,1.60
2023-01-06T12:38:01.967Z,1.60
2023-01-06T12:39:04.194Z,1.50
2023-01-06T12:40:02.469Z,1.40
2023-01-06T12:41:00.775Z,1.60
2023-01-06T12:42:01.080Z,1.70
2023-01-06T12:43:00.732Z,1.60
2023-01-06T12:44:01.632Z,1.70
2023-01-06T12:45:00.684Z,1.50
2023-01-06T12:46:01.802Z,1.50
2023-01-06T12:47:00.817Z,1.60
2023-01-06T12:48:00.553Z,1.80
2023-01-06T12:49:00.404Z,1.60
2023-01-06T12:50:00.572Z,1.70
2023-01-06T12:51:00.429Z,1.80
2023-01-06T12:52:00.333Z,1.50
2023-01-06T12:53:04.810Z,1.40
2023-01-06T12:54:01.070Z,1.80
2023-01-06T12:55:00.404Z,1.40
2023-01-06T12:56:00.414Z,1.70
2023-01-06T12:57:00.379Z,1.60
2023-01-06T12:58:00.311Z,1.80
2023-01-06T12:59:00.283Z,1.80
2023-01-06T13:00:00.307Z,1.70
2023-01-06T13:01:00.368Z,1.60
2023-01-06T13:02:00.501Z,1.40
2023-01-06T13:03:00.325Z,1.60
2023-01-06T13:04:00.294Z,1.50
2023-01-06T13:05:01.167Z,1.50
2023-01-06T13:06:01.129Z,1.40
2023-01-06T13:07:00.220Z,1.40
2023-01-06T13:08:01.049Z,1.20
2023-01-06T13:09:01.143Z,1.50
2023-01-06T13:10:00.284Z,1.30
2023-01-06T13:11:00.248Z,1.30
2023-01-06T13:12:00.332Z,1.00
2023-01-06T13:13:00.532Z,0.90
2023-01-06T13:14:00.988Z,1.10
2023-01-06T13:15:02.947Z,1.20
2023-01-06T13:16:01.098Z,1.10
2023-01-06T13:17:02.009Z,1.10
2023-01-06T13:18:00.127Z,1.10
2023-01-06T13:19:00.651Z,0.90
2023-01-06T13:20:00.023Z,1.00
2023-01-06T13:21:00.128Z,1.20
2023-01-06T13:22:00.537Z,0.90
2023-01-06T13:23:00.126Z,0.80
2023-01-06T13:24:00.556Z,0.90
2023-01-06T13:25:00.370Z,0.70
2023-01-06T13:26:00.192Z,1.00
2023-01-06T13:27:01.920Z,1.00
2023-01-06T13:28:00.056Z,0.80
2023-01-06T13:29:00.055Z,0.90
2023-01-06T13:29:59.942Z,1.10
2023-01-06T13:31:00.259Z,1.00
2023-01-06T13:31:59.912Z,0.80
2023-01-06T13:33:00.737Z,0.90